Yamoussoukro, Ivory Coast

8:17 PM GMT on August 28, 2015 (GMT +0000)
Yamoussoukro | | Change Station
CLOSE
Current Station
Airport
Location: Yamoussoukro,
Elevation: 699 ft
Nearby Weather Stations

Elev 699 ft 6.90 °N, 5.37 °W | Updated 17 minutes ago

Mostly Cloudy
Mostly Cloudy
77 °F
Feels Like 77 °F
N
9
Wind Variable Wind from South

Today
High -- | Low -- °F
--% Chance of Precip.
Yesterday
High -- | Low -- °F
Precip. -- in
6:14 AM 6:30 PM
Waxing Gibbous, 99% visible
Pressure 29.92 in
Visibility 6.2 miles
Clouds Mostly Cloudy 1000 ft
Dew Point 73 °F
Humidity 89%
Rainfall 0.00 in
Snow Depth Not available.
UV 0 out of 12
Pollen Not available.
Air Quality Not available.
Flu Activity Not available.
METAR DIYO 282000Z 18008KT 9999 BKN010 25/23 Q1013 NOSIG
Pressure 29.92 in
Visibility 6.2 miles
Clouds Mostly Cloudy 1000 ft
Dew Point 73 °F
Humidity 89%
Rainfall 0.00 in
Snow Depth Not available.
UV 0 out of 12
Pollen Not available.
Air Quality Not available.
Flu Activity Not available.
METAR DIYO 282000Z 18008KT 9999 BKN010 25/23 Q1013 NOSIG

10-Day Weather Forecast

×

Almanac

Astronomy

Aug. 28, 2015 Rise Set
Actual Time
Civil Twilight
Nautical Twilight
Astronomical Twilight
Moon
Length of Visible Light
Length of Day
Tomorrow will be .
, % of the Moon is Illuminated

Today's Extremes

Country Highs Country Lows

Community

WunderPhotos

Upload Photos

1,850,468 photos uploaded!

WunderBlogs® & News

Nearby

Air Quality

  Air Quality AQ Index Pollutant
Not available.

Snow Depth

Station Depth Elevation

Earthquake Activity

City Distance Mag. Time & Date
Minimum magnitude displayed is 2.5.

Coastal Water Temperatures

Place Temperature

Stations

Nearby Weather Stations

Station Location Temp. Windchill Dew Point Humidity Wind Precip. Elev Updated Type